Погода Витория-ду-Меаринна 2 недели

Мараньян, Бразилия

23 июля-04 августа
  • 23июля
    Сегодня
    +23°
    +32°
    Ясно и безоблачно
    ВремяПогодаТемператураВлажностьДавлениеВетер, м/сВероятность осадков
    00:00Ясно и безоблачно+24°C81 %761 мм0.9 м/с5 %
    03:00Ясно и безоблачно+25°C94 %760 мм3.0 м/с4 %
    06:00Ясно и безоблачно+24°C96 %760 мм1.6 м/с5 %
    09:00Ясно и безоблачно+28°C76 %762 мм1.8 м/с5 %
    12:00Ясно и безоблачно+31°C41 %761 мм4.7 м/с9 %
    15:00Ясно и безоблачно+32°C41 %759 мм3.7 м/с5 %
    18:00Ясно и безоблачно+29°C60 %760 мм1.6 м/с5 %
    21:00Небольшая облачность+27°C73 %761 мм2.0 м/с5 %
  • 24июля
    Среда
    +22°
    +32°
    Ясно и безоблачно
    ВремяПогодаТемператураВлажностьДавлениеВетер, м/сВероятность осадков
    00:00Практически безоблачно+25°C74 %761 мм2.2 м/с5 %
    03:00Ясно и безоблачно+25°C95 %760 мм2.9 м/с2 %
    06:00Ясно и безоблачно+24°C95 %760 мм1.8 м/с3 %
    09:00Ясно и безоблачно+28°C77 %762 мм1.8 м/с5 %
    12:00Практически безоблачно+30°C59 %762 мм3.6 м/с32 %
    15:00Ясно и безоблачно+32°C49 %760 мм3.2 м/с7 %
    18:00Ясно и безоблачно+29°C62 %760 мм1.5 м/с3 %
    21:00Ясно и безоблачно+28°C73 %762 мм1.7 м/с3 %
  • 25июля
    Четверг
    +21°
    +32°
    Ясно и безоблачно
    ВремяПогодаТемператураВлажностьДавлениеВетер, м/сВероятность осадков
    00:00Ясно и безоблачно+26°C62 %762 мм0.9 м/с3 %
    03:00Ясно и безоблачно+24°C96 %760 мм2.8 м/с6 %
    06:00Ясно и безоблачно+23°C93 %761 мм1.7 м/с5 %
    09:00Ясно и безоблачно+28°C68 %762 мм3.0 м/с17 %
    12:00Ясно и безоблачно+31°C41 %761 мм4.9 м/с9 %
    15:00Ясно и безоблачно+32°C41 %759 мм3.3 м/с4 %
    18:00Ясно и безоблачно+29°C65 %759 мм1.1 м/с5 %
    21:00Ясно и безоблачно+27°C64 %760 мм2.4 м/с5 %
  • 26июля
    Пятница
    +23°
    +32°
    Ясно и безоблачно
    ВремяПогодаТемператураВлажностьДавлениеВетер, м/сВероятность осадков
    00:00Ясно и безоблачно+24°C76 %760 мм2.1 м/с5 %
    03:00Ясно и безоблачно+23°C72 %759 мм2.7 м/с3 %
    06:00Ясно и безоблачно+22°C87 %760 мм2.0 м/с6 %
    09:00Ясно и безоблачно+28°C73 %761 мм2.1 м/с10 %
    12:00Ясно и безоблачно+31°C48 %761 мм3.8 м/с19 %
    15:00Ясно и безоблачно+31°C42 %759 мм3.0 м/с5 %
    18:00Облачно с прояснениями+28°C56 %759 мм2.0 м/с5 %
    21:00Ясно и безоблачно+27°C61 %760 мм1.9 м/с5 %
  • 27июля
    Суббота
    +24°
    +33°
    Облачно с прояснениями
    ВремяПогодаТемператураВлажностьДавлениеВетер, м/сВероятность осадков
    00:00Ясно и безоблачно+24°C80 %760 мм2.8 м/с5 %
    03:00Ясно и безоблачно+24°C95 %760 мм2.8 м/с5 %
    06:00Ясно и безоблачно+23°C92 %760 мм2.2 м/с5 %
    09:00Ясно и безоблачно+28°C74 %761 мм3.0 м/с13 %
    12:00Практически безоблачно+31°C48 %760 мм4.3 м/с9 %
    15:00Облачно с прояснениями+33°C40 %759 мм3.7 м/с4 %
    18:00Облачно с прояснениями+30°C58 %759 мм1.7 м/с5 %
    21:00Ясно и безоблачно+28°C72 %761 мм2.2 м/с6 %
Мы используем cookies
Соглашаюсь